sensor_id;sensor_type;location;lat;lon;timestamp;pressure;altitude;pressure_sealevel;temperature;humidity
53908;BME280;40469;47.998;7.794;2023-02-23T00:00:51;98672.25;;;9.34;100.00
53908;BME280;40469;47.998;7.794;2023-02-23T00:03:17;98668.78;;;9.34;100.00
53908;BME280;40469;47.998;7.794;2023-02-23T00:05:42;98668.84;;;9.24;100.00
53908;BME280;40469;47.998;7.794;2023-02-23T00:08:07;98664.47;;;9.29;100.00
53908;BME280;40469;47.998;7.794;2023-02-23T00:10:33;98668.88;;;9.23;100.00
53908;BME280;40469;47.998;7.794;2023-02-23T00:12:58;98667.09;;;9.28;100.00
53908;BME280;40469;47.998;7.794;2023-02-23T00:15:27;98667.16;;;9.22;100.00
53908;BME280;40469;47.998;7.794;2023-02-23T00:17:53;98664.63;;;9.14;100.00
53908;BME280;40469;47.998;7.794;2023-02-23T00:20:19;98666.34;;;9.15;100.00
53908;BME280;40469;47.998;7.794;2023-02-23T00:22:49;98662.03;;;9.14;100.00
53908;BME280;40469;47.998;7.794;2023-02-23T00:25:16;98667.25;;;9.11;100.00
53908;BME280;40469;47.998;7.794;2023-02-23T00:27:42;98664.66;;;9.11;100.00
53908;BME280;40469;47.998;7.794;2023-02-23T00:30:09;98665.50;;;9.10;100.00
53908;BME280;40469;47.998;7.794;2023-02-23T00:32:34;98655.94;;;9.10;100.00
53908;BME280;40469;47.998;7.794;2023-02-23T00:34:59;98661.13;;;9.15;100.00
53908;BME280;40469;47.998;7.794;2023-02-23T00:37:25;98660.31;;;9.07;100.00
53908;BME280;40469;47.998;7.794;2023-02-23T00:39:50;98659.47;;;9.06;100.00
53908;BME280;40469;47.998;7.794;2023-02-23T00:42:16;98655.06;;;9.15;100.00
53908;BME280;40469;47.998;7.794;2023-02-23T00:44:42;98651.56;;;9.17;100.00
53908;BME280;40469;47.998;7.794;2023-02-23T00:47:07;98665.50;;;9.11;100.00
53908;BME280;40469;47.998;7.794;2023-02-23T00:49:32;98654.22;;;9.14;100.00
53908;BME280;40469;47.998;7.794;2023-02-23T00:51:58;98654.25;;;9.08;100.00
53908;BME280;40469;47.998;7.794;2023-02-23T00:54:23;98655.19;;;9.02;100.00
53908;BME280;40469;47.998;7.794;2023-02-23T00:56:48;98652.50;;;9.10;100.00
53908;BME280;40469;47.998;7.794;2023-02-23T00:59:14;98654.22;;;9.13;100.00
53908;BME280;40469;47.998;7.794;2023-02-23T01:01:40;98647.34;;;9.05;100.00
53908;BME280;40469;47.998;7.794;2023-02-23T01:04:08;98648.97;;;9.16;100.00
53908;BME280;40469;47.998;7.794;2023-02-23T01:06:34;98649.69;;;9.32;100.00
53908;BME280;40469;47.998;7.794;2023-02-23T01:09:04;98648.78;;;9.36;100.00
53908;BME280;40469;47.998;7.794;2023-02-23T01:11:30;98647.03;;;9.38;100.00
53908;BME280;40469;47.998;7.794;2023-02-23T01:13:56;98647.97;;;9.32;100.00
53908;BME280;40469;47.998;7.794;2023-02-23T01:16:23;98639.19;;;9.41;100.00
53908;BME280;40469;47.998;7.794;2023-02-23T01:18:52;98638.38;;;9.34;100.00
53908;BME280;40469;47.998;7.794;2023-02-23T01:21:19;98641.81;;;9.38;100.00
53908;BME280;40469;47.998;7.794;2023-02-23T01:23:45;98640.09;;;9.35;100.00
53908;BME280;40469;47.998;7.794;2023-02-23T01:28:43;98635.66;;;9.46;100.00
53908;BME280;40469;47.998;7.794;2023-02-23T01:31:08;98633.88;;;9.48;100.00
53908;BME280;40469;47.998;7.794;2023-02-23T01:33:33;98634.75;;;9.49;100.00
53908;BME280;40469;47.998;7.794;2023-02-23T01:35:58;98629.50;;;9.52;100.00
53908;BME280;40469;47.998;7.794;2023-02-23T01:38:24;98628.66;;;9.50;100.00
53908;BME280;40469;47.998;7.794;2023-02-23T01:40:49;98629.53;;;9.51;100.00
53908;BME280;40469;47.998;7.794;2023-02-23T01:43:19;98625.16;;;9.53;100.00
53908;BME280;40469;47.998;7.794;2023-02-23T01:45:51;98632.06;;;9.57;100.00
53908;BME280;40469;47.998;7.794;2023-02-23T01:48:19;98617.31;;;9.56;100.00
53908;BME280;40469;47.998;7.794;2023-02-23T01:50:53;98622.63;;;9.46;100.00
53908;BME280;40469;47.998;7.794;2023-02-23T01:53:19;98626.91;;;9.52;100.00
53908;BME280;40469;47.998;7.794;2023-02-23T01:55:49;98618.16;;;9.55;100.00
53908;BME280;40469;47.998;7.794;2023-02-23T01:58:16;98619.06;;;9.55;100.00
53908;BME280;40469;47.998;7.794;2023-02-23T02:00:45;98622.50;;;9.56;100.00
53908;BME280;40469;47.998;7.794;2023-02-23T02:03:13;98608.63;;;9.54;100.00
53908;BME280;40469;47.998;7.794;2023-02-23T02:05:39;98617.31;;;9.53;100.00
53908;BME280;40469;47.998;7.794;2023-02-23T02:08:05;98616.41;;;9.58;100.00
53908;BME280;40469;47.998;7.794;2023-02-23T02:10:32;98610.41;;;9.53;100.00
53908;BME280;40469;47.998;7.794;2023-02-23T02:13:12;98606.03;;;9.55;100.00
53908;BME280;40469;47.998;7.794;2023-02-23T02:15:53;98611.22;;;9.57;100.00
53908;BME280;40469;47.998;7.794;2023-02-23T02:18:28;98606.91;;;9.53;100.00
53908;BME280;40469;47.998;7.794;2023-02-23T02:21:01;98602.66;;;9.44;100.00
53908;BME280;40469;47.998;7.794;2023-02-23T02:33:41;98593.38;;;9.21;100.00
53908;BME280;40469;47.998;7.794;2023-02-23T02:38:46;98592.47;;;9.21;100.00
53908;BME280;40469;47.998;7.794;2023-02-23T02:41:19;98594.22;;;9.23;100.00
53908;BME280;40469;47.998;7.794;2023-02-23T02:46:37;98588.91;;;9.31;100.00
53908;BME280;40469;47.998;7.794;2023-02-23T02:56:47;98600.13;;;9.38;100.00
53908;BME280;40469;47.998;7.794;2023-02-23T02:59:15;98595.72;;;9.46;100.00
53908;BME280;40469;47.998;7.794;2023-02-23T03:01:59;98597.44;;;9.44;100.00
53908;BME280;40469;47.998;7.794;2023-02-23T03:04:43;98593.13;;;9.43;100.00
53908;BME280;40469;47.998;7.794;2023-02-23T03:07:34;98584.47;;;9.41;100.00
53908;BME280;40469;47.998;7.794;2023-02-23T03:10:27;98588.78;;;9.43;100.00
53908;BME280;40469;47.998;7.794;2023-02-23T03:13:25;98582.75;;;9.38;100.00
53908;BME280;40469;47.998;7.794;2023-02-23T03:16:22;98586.31;;;9.28;100.00
53908;BME280;40469;47.998;7.794;2023-02-23T03:19:12;98583.84;;;9.16;100.00
53908;BME280;40469;47.998;7.794;2023-02-23T03:24:48;98583.03;;;9.12;100.00
53908;BME280;40469;47.998;7.794;2023-02-23T03:30:20;98586.44;;;9.17;100.00
53908;BME280;40469;47.998;7.794;2023-02-23T03:33:09;98586.50;;;9.14;100.00
53908;BME280;40469;47.998;7.794;2023-02-23T03:38:47;98579.66;;;9.01;100.00
53908;BME280;40469;47.998;7.794;2023-02-23T03:41:34;98585.72;;;9.04;100.00
53908;BME280;40469;47.998;7.794;2023-02-23T03:44:21;98580.50;;;9.04;100.00
53908;BME280;40469;47.998;7.794;2023-02-23T03:47:06;98583.13;;;9.01;100.00
53908;BME280;40469;47.998;7.794;2023-02-23T03:49:53;98584.84;;;9.05;100.00
53908;BME280;40469;47.998;7.794;2023-02-23T03:52:44;98580.47;;;9.09;100.00
53908;BME280;40469;47.998;7.794;2023-02-23T03:55:31;98576.13;;;9.09;100.00
53908;BME280;40469;47.998;7.794;2023-02-23T03:58:17;98576.09;;;9.11;100.00
53908;BME280;40469;47.998;7.794;2023-02-23T04:01:03;98579.66;;;9.02;100.00
53908;BME280;40469;47.998;7.794;2023-02-23T04:03:48;98584.81;;;9.07;100.00
53908;BME280;40469;47.998;7.794;2023-02-23T04:06:35;98574.38;;;9.08;100.00
53908;BME280;40469;47.998;7.794;2023-02-23T04:09:20;98583.09;;;9.06;100.00
53908;BME280;40469;47.998;7.794;2023-02-23T04:12:12;98584.03;;;9.00;100.00
53908;BME280;40469;47.998;7.794;2023-02-23T04:15:03;98580.53;;;8.98;100.00
53908;BME280;40469;47.998;7.794;2023-02-23T04:17:31;98574.59;;;8.85;100.00
53908;BME280;40469;47.998;7.794;2023-02-23T04:19:56;98582.44;;;8.82;100.00
53908;BME280;40469;47.998;7.794;2023-02-23T04:22:22;98576.38;;;8.80;100.00
53908;BME280;40469;47.998;7.794;2023-02-23T04:24:48;98581.66;;;8.72;100.00
53908;BME280;40469;47.998;7.794;2023-02-23T04:27:14;98585.94;;;8.78;100.00
53908;BME280;40469;47.998;7.794;2023-02-23T04:29:39;98588.56;;;8.75;100.00
53908;BME280;40469;47.998;7.794;2023-02-23T04:32:05;98579.06;;;8.71;100.00
53908;BME280;40469;47.998;7.794;2023-02-23T04:34:30;98581.75;;;8.65;100.00
53908;BME280;40469;47.998;7.794;2023-02-23T04:36:56;98578.22;;;8.67;100.00
53908;BME280;40469;47.998;7.794;2023-02-23T04:39:21;98580.91;;;8.60;100.00
53908;BME280;40469;47.998;7.794;2023-02-23T04:41:46;98585.22;;;8.61;100.00
53908;BME280;40469;47.998;7.794;2023-02-23T04:44:14;98586.13;;;8.57;100.00
53908;BME280;40469;47.998;7.794;2023-02-23T04:46:40;98583.53;;;8.57;100.00
53908;BME280;40469;47.998;7.794;2023-02-23T04:49:05;98587.88;;;8.54;100.00
53908;BME280;40469;47.998;7.794;2023-02-23T04:51:30;98588.81;;;8.47;100.00
53908;BME280;40469;47.998;7.794;2023-02-23T04:53:57;98593.09;;;8.51;100.00
53908;BME280;40469;47.998;7.794;2023-02-23T04:56:23;98587.97;;;8.44;100.00
53908;BME280;40469;47.998;7.794;2023-02-23T04:58:48;98585.31;;;8.48;100.00
53908;BME280;40469;47.998;7.794;2023-02-23T05:01:13;98591.34;;;8.55;100.00
53908;BME280;40469;47.998;7.794;2023-02-23T05:03:39;98588.72;;;8.57;100.00
53908;BME280;40469;47.998;7.794;2023-02-23T05:06:04;98583.53;;;8.53;100.00
53908;BME280;40469;47.998;7.794;2023-02-23T05:08:29;98588.72;;;8.57;100.00
53908;BME280;40469;47.998;7.794;2023-02-23T05:10:55;98584.41;;;8.54;100.00
53908;BME280;40469;47.998;7.794;2023-02-23T05:13:20;98590.44;;;8.58;100.00
53908;BME280;40469;47.998;7.794;2023-02-23T05:15:46;98586.13;;;8.57;100.00
53908;BME280;40469;47.998;7.794;2023-02-23T05:18:11;98587.84;;;8.58;100.00
53908;BME280;40469;47.998;7.794;2023-02-23T05:20:36;98591.28;;;8.63;100.00
53908;BME280;40469;47.998;7.794;2023-02-23T05:23:01;98586.94;;;8.65;100.00
53908;BME280;40469;47.998;7.794;2023-02-23T05:25:27;98581.69;;;8.68;100.00
53908;BME280;40469;47.998;7.794;2023-02-23T05:27:52;98577.38;;;8.65;100.00
53908;BME280;40469;47.998;7.794;2023-02-23T05:30:17;98576.56;;;8.59;100.00
53908;BME280;40469;47.998;7.794;2023-02-23T05:32:42;98579.16;;;8.63;100.00
53908;BME280;40469;47.998;7.794;2023-02-23T05:35:08;98578.22;;;8.67;100.00
53908;BME280;40469;47.998;7.794;2023-02-23T05:37:34;98584.34;;;8.63;100.00
53908;BME280;40469;47.998;7.794;2023-02-23T05:39:59;98586.09;;;8.61;100.00
53908;BME280;40469;47.998;7.794;2023-02-23T05:42:24;98581.75;;;8.65;100.00
53908;BME280;40469;47.998;7.794;2023-02-23T05:44:49;98583.53;;;8.58;100.00
53908;BME280;40469;47.998;7.794;2023-02-23T05:47:15;98586.06;;;8.64;100.00
53908;BME280;40469;47.998;7.794;2023-02-23T05:49:40;98584.25;;;8.72;100.00
53908;BME280;40469;47.998;7.794;2023-02-23T05:52:05;98587.63;;;8.84;100.00
53908;BME280;40469;47.998;7.794;2023-02-23T05:54:30;98588.50;;;8.84;100.00
53908;BME280;40469;47.998;7.794;2023-02-23T05:56:56;98585.84;;;8.89;100.00
53908;BME280;40469;47.998;7.794;2023-02-23T05:59:21;98595.50;;;8.81;100.00
53908;BME280;40469;47.998;7.794;2023-02-23T06:01:46;98591.97;;;8.83;100.00
53908;BME280;40469;47.998;7.794;2023-02-23T06:04:11;98593.88;;;8.63;100.00
53908;BME280;40469;47.998;7.794;2023-02-23T06:06:38;98589.50;;;8.66;100.00
53908;BME280;40469;47.998;7.794;2023-02-23T06:09:04;98593.00;;;8.68;100.00
53908;BME280;40469;47.998;7.794;2023-02-23T06:11:29;98587.72;;;8.71;100.00
53908;BME280;40469;47.998;7.794;2023-02-23T06:13:56;98593.81;;;8.72;100.00
53908;BME280;40469;47.998;7.794;2023-02-23T06:16:23;98601.66;;;8.66;100.00
53908;BME280;40469;47.998;7.794;2023-02-23T06:18:48;98597.38;;;8.59;100.00
53908;BME280;40469;47.998;7.794;2023-02-23T06:21:13;98600.84;;;8.61;100.00
53908;BME280;40469;47.998;7.794;2023-02-23T06:23:39;98597.38;;;8.60;100.00
53908;BME280;40469;47.998;7.794;2023-02-23T06:26:04;98599.16;;;8.57;100.00
53908;BME280;40469;47.998;7.794;2023-02-23T06:28:29;98606.03;;;8.61;100.00
53908;BME280;40469;47.998;7.794;2023-02-23T06:30:55;98608.63;;;8.61;100.00
53908;BME280;40469;47.998;7.794;2023-02-23T06:33:20;98605.22;;;8.54;100.00
53908;BME280;40469;47.998;7.794;2023-02-23T06:35:46;98620.88;;;8.49;100.00
53908;BME280;40469;47.998;7.794;2023-02-23T06:38:11;98616.47;;;8.58;100.00
53908;BME280;40469;47.998;7.794;2023-02-23T06:40:37;98614.75;;;8.58;100.00
53908;BME280;40469;47.998;7.794;2023-02-23T06:43:02;98619.94;;;8.60;100.00
53908;BME280;40469;47.998;7.794;2023-02-23T06:45:29;98622.53;;;8.61;100.00
53908;BME280;40469;47.998;7.794;2023-02-23T06:47:55;98619.94;;;8.60;100.00
53908;BME280;40469;47.998;7.794;2023-02-23T06:50:20;98626.00;;;8.59;100.00
53908;BME280;40469;47.998;7.794;2023-02-23T06:52:46;98622.56;;;8.53;100.00
53908;BME280;40469;47.998;7.794;2023-02-23T06:55:12;98626.09;;;8.48;100.00
53908;BME280;40469;47.998;7.794;2023-02-23T06:57:38;98623.50;;;8.43;100.00
53908;BME280;40469;47.998;7.794;2023-02-23T07:00:03;98623.50;;;8.45;100.00
53908;BME280;40469;47.998;7.794;2023-02-23T07:02:29;98625.22;;;8.41;100.00
53908;BME280;40469;47.998;7.794;2023-02-23T07:04:54;98622.69;;;8.37;100.00
53908;BME280;40469;47.998;7.794;2023-02-23T07:07:20;98627.00;;;8.36;100.00
53908;BME280;40469;47.998;7.794;2023-02-23T07:09:46;98623.53;;;8.34;100.00
53908;BME280;40469;47.998;7.794;2023-02-23T07:12:11;98632.19;;;8.34;100.00
53908;BME280;40469;47.998;7.794;2023-02-23T07:14:36;98627.84;;;8.43;100.00
53908;BME280;40469;47.998;7.794;2023-02-23T07:17:02;98623.47;;;8.49;100.00
53908;BME280;40469;47.998;7.794;2023-02-23T07:19:28;98632.13;;;8.56;100.00
53908;BME280;40469;47.998;7.794;2023-02-23T07:21:53;98632.06;;;8.61;100.00
53908;BME280;40469;47.998;7.794;2023-02-23T07:24:18;98632.97;;;8.58;100.00
53908;BME280;40469;47.998;7.794;2023-02-23T07:26:44;98638.16;;;8.60;100.00
53908;BME280;40469;47.998;7.794;2023-02-23T07:29:10;98636.34;;;8.69;100.00
53908;BME280;40469;47.998;7.794;2023-02-23T07:31:36;98635.47;;;8.70;100.00
53908;BME280;40469;47.998;7.794;2023-02-23T07:34:01;98636.31;;;8.74;100.00
53908;BME280;40469;47.998;7.794;2023-02-23T07:36:27;98647.50;;;8.82;100.00
53908;BME280;40469;47.998;7.794;2023-02-23T07:38:52;98640.59;;;8.84;100.00
53908;BME280;40469;47.998;7.794;2023-02-23T07:41:18;98640.50;;;8.90;100.00
53908;BME280;40469;47.998;7.794;2023-02-23T07:43:43;98645.69;;;8.95;100.00
53908;BME280;40469;47.998;7.794;2023-02-23T07:46:08;98646.47;;;9.03;100.00
53908;BME280;40469;47.998;7.794;2023-02-23T07:48:34;98644.69;;;9.10;100.00
53908;BME280;40469;47.998;7.794;2023-02-23T07:50:59;98651.56;;;9.17;100.00
53908;BME280;40469;47.998;7.794;2023-02-23T07:53:24;98652.41;;;9.19;100.00
53908;BME280;40469;47.998;7.794;2023-02-23T07:55:58;98654.16;;;9.19;100.00
53908;BME280;40469;47.998;7.794;2023-02-23T07:58:23;98646.25;;;9.26;100.00
53908;BME280;40469;47.998;7.794;2023-02-23T08:00:48;98651.53;;;9.23;100.00
53908;BME280;40469;47.998;7.794;2023-02-23T08:03:13;98646.41;;;9.13;100.00
53908;BME280;40469;47.998;7.794;2023-02-23T08:05:39;98651.53;;;9.20;100.00
53908;BME280;40469;47.998;7.794;2023-02-23T08:08:04;98654.13;;;9.22;100.00
53908;BME280;40469;47.998;7.794;2023-02-23T08:10:29;98648.94;;;9.20;100.00
53908;BME280;40469;47.998;7.794;2023-02-23T08:12:56;98658.38;;;9.32;100.00
53908;BME280;40469;47.998;7.794;2023-02-23T08:15:21;98652.34;;;9.30;100.00
53908;BME280;40469;47.998;7.794;2023-02-23T08:17:46;98651.44;;;9.29;100.00
53908;BME280;40469;47.998;7.794;2023-02-23T08:20:12;98655.81;;;9.26;100.00
53908;BME280;40469;47.998;7.794;2023-02-23T08:22:37;98658.44;;;9.24;100.00
53908;BME280;40469;47.998;7.794;2023-02-23T08:25:02;98652.34;;;9.28;100.00
53908;BME280;40469;47.998;7.794;2023-02-23T08:27:31;98651.44;;;9.28;100.00
53908;BME280;40469;47.998;7.794;2023-02-23T08:29:57;98658.38;;;9.32;100.00
53908;BME280;40469;47.998;7.794;2023-02-23T08:32:24;98654.00;;;9.37;100.00
53908;BME280;40469;47.998;7.794;2023-02-23T08:34:50;98654.78;;;9.44;100.00
53908;BME280;40469;47.998;7.794;2023-02-23T08:37:15;98656.53;;;9.40;100.00
53908;BME280;40469;47.998;7.794;2023-02-23T08:39:40;98653.06;;;9.41;100.00
53908;BME280;40469;47.998;7.794;2023-02-23T08:42:05;98653.03;;;9.46;100.00
53908;BME280;40469;47.998;7.794;2023-02-23T08:44:31;98652.97;;;9.51;100.00
53908;BME280;40469;47.998;7.794;2023-02-23T08:46:56;98647.59;;;9.67;100.00
53908;BME280;40469;47.998;7.794;2023-02-23T08:49:22;98644.03;;;9.75;100.00
53908;BME280;40469;47.998;7.794;2023-02-23T08:51:48;98653.63;;;9.71;100.00
53908;BME280;40469;47.998;7.794;2023-02-23T08:54:13;98651.75;;;9.81;100.00
53908;BME280;40469;47.998;7.794;2023-02-23T08:56:40;98659.50;;;9.89;100.00
53908;BME280;40469;47.998;7.794;2023-02-23T08:59:06;98656.69;;;10.04;100.00
53908;BME280;40469;47.998;7.794;2023-02-23T09:01:31;98660.06;;;10.14;100.00
53908;BME280;40469;47.998;7.794;2023-02-23T09:03:57;98653.81;;;10.27;100.00
53908;BME280;40469;47.998;7.794;2023-02-23T09:06:29;98659.66;;;10.46;100.00
53908;BME280;40469;47.998;7.794;2023-02-23T09:08:55;98656.63;;;10.75;100.00
53908;BME280;40469;47.998;7.794;2023-02-23T09:11:34;98655.66;;;10.79;100.00
53908;BME280;40469;47.998;7.794;2023-02-23T09:14:00;98656.28;;;10.95;100.00
53908;BME280;40469;47.998;7.794;2023-02-23T09:16:25;98658.75;;;11.05;100.00
53908;BME280;40469;47.998;7.794;2023-02-23T09:18:50;98664.84;;;11.05;100.00
53908;BME280;40469;47.998;7.794;2023-02-23T09:21:16;98662.94;;;11.15;100.00
53908;BME280;40469;47.998;7.794;2023-02-23T09:23:49;98665.44;;;11.23;100.00
53908;BME280;40469;47.998;7.794;2023-02-23T09:26:16;98673.53;;;11.55;100.00
53908;BME280;40469;47.998;7.794;2023-02-23T09:28:42;98677.81;;;12.06;100.00
53908;BME280;40469;47.998;7.794;2023-02-23T09:31:09;98677.91;;;12.44;100.00
53908;BME280;40469;47.998;7.794;2023-02-23T09:33:34;98679.44;;;12.54;100.00
53908;BME280;40469;47.998;7.794;2023-02-23T09:36:02;98679.34;;;12.59;100.00
53908;BME280;40469;47.998;7.794;2023-02-23T09:38:27;98674.72;;;12.68;100.00
53908;BME280;40469;47.998;7.794;2023-02-23T09:40:54;98674.06;;;12.98;100.00
53908;BME280;40469;47.998;7.794;2023-02-23T09:46:03;98672.19;;;13.39;100.00
53908;BME280;40469;47.998;7.794;2023-02-23T09:48:33;98672.03;;;13.45;100.00
53908;BME280;40469;47.998;7.794;2023-02-23T09:50:58;98678.38;;;13.36;100.00
53908;BME280;40469;47.998;7.794;2023-02-23T09:55:51;98683.53;;;13.39;100.00
53908;BME280;40469;47.998;7.794;2023-02-23T09:58:24;98670.69;;;13.63;100.00
53908;BME280;40469;47.998;7.794;2023-02-23T10:03:30;98675.69;;;13.02;100.00
53908;BME280;40469;47.998;7.794;2023-02-23T10:06:01;98667.22;;;13.26;100.00
53908;BME280;40469;47.998;7.794;2023-02-23T10:11:09;98663.00;;;13.21;100.00
53908;BME280;40469;47.998;7.794;2023-02-23T10:23:45;98651.91;;;14.38;100.00
53908;BME280;40469;47.998;7.794;2023-02-23T10:26:17;98653.16;;;14.26;100.00
53908;BME280;40469;47.998;7.794;2023-02-23T10:28:45;98646.81;;;14.33;100.00
53908;BME280;40469;47.998;7.794;2023-02-23T10:31:27;98643.22;;;14.06;100.00
53908;BME280;40469;47.998;7.794;2023-02-23T10:33:56;98646.44;;;14.75;100.00
53908;BME280;40469;47.998;7.794;2023-02-23T10:36:30;98641.84;;;15.09;100.00
53908;BME280;40469;47.998;7.794;2023-02-23T10:38:58;98646.91;;;15.65;100.00
53908;BME280;40469;47.998;7.794;2023-02-23T10:41:24;98644.34;;;15.64;100.00
53908;BME280;40469;47.998;7.794;2023-02-23T10:43:49;98644.16;;;15.43;100.00
53908;BME280;40469;47.998;7.794;2023-02-23T10:46:17;98644.00;;;15.98;100.00
53908;BME280;40469;47.998;7.794;2023-02-23T10:48:44;98642.16;;;16.00;100.00
53908;BME280;40469;47.998;7.794;2023-02-23T10:51:16;98649.75;;;15.84;100.00
53908;BME280;40469;47.998;7.794;2023-02-23T10:53:42;98643.13;;;15.98;100.00
53908;BME280;40469;47.998;7.794;2023-02-23T10:56:12;98639.31;;;15.56;100.00
53908;BME280;40469;47.998;7.794;2023-02-23T11:01:10;98631.00;;;16.17;100.00
53908;BME280;40469;47.998;7.794;2023-02-23T11:06:01;98631.09;;;15.15;100.00
53908;BME280;40469;47.998;7.794;2023-02-23T11:08:31;98632.38;;;15.80;100.00
53908;BME280;40469;47.998;7.794;2023-02-23T11:11:00;98636.72;;;15.81;100.00
53908;BME280;40469;47.998;7.794;2023-02-23T11:13:27;98633.94;;;16.09;100.00
53908;BME280;40469;47.998;7.794;2023-02-23T11:18:53;98631.81;;;15.96;100.00
53908;BME280;40469;47.998;7.794;2023-02-23T11:21:26;98629.25;;;16.16;100.00
53908;BME280;40469;47.998;7.794;2023-02-23T11:23:54;98634.69;;;16.13;100.00
53908;BME280;40469;47.998;7.794;2023-02-23T11:26:28;98624.78;;;15.71;100.00
53908;BME280;40469;47.998;7.794;2023-02-23T11:28:59;98624.16;;;15.88;100.00
53908;BME280;40469;47.998;7.794;2023-02-23T11:31:27;98635.53;;;16.14;100.00
53908;BME280;40469;47.998;7.794;2023-02-23T11:33:54;98624.41;;;15.57;100.00
53908;BME280;40469;47.998;7.794;2023-02-23T11:38:56;98626.63;;;16.16;100.00
53908;BME280;40469;47.998;7.794;2023-02-23T11:41:24;98611.63;;;16.18;100.00
53908;BME280;40469;47.998;7.794;2023-02-23T11:43:50;98615.94;;;16.43;100.00
53908;BME280;40469;47.998;7.794;2023-02-23T11:46:16;98615.53;;;16.54;100.00
53908;BME280;40469;47.998;7.794;2023-02-23T11:48:46;98616.34;;;16.56;100.00
53908;BME280;40469;47.998;7.794;2023-02-23T11:51:20;98606.66;;;17.21;100.00
53908;BME280;40469;47.998;7.794;2023-02-23T11:53:46;98605.22;;;17.14;100.00
53908;BME280;40469;47.998;7.794;2023-02-23T11:56:11;98608.50;;;16.30;100.00
53908;BME280;40469;47.998;7.794;2023-02-23T11:58:45;98612.28;;;16.47;100.00
53908;BME280;40469;47.998;7.794;2023-02-23T12:01:11;98601.28;;;16.80;100.00
53908;BME280;40469;47.998;7.794;2023-02-23T12:03:45;98598.41;;;15.72;100.00
53908;BME280;40469;47.998;7.794;2023-02-23T12:06:12;98597.97;;;15.85;100.00
53908;BME280;40469;47.998;7.794;2023-02-23T12:08:51;98597.28;;;15.29;100.00
53908;BME280;40469;47.998;7.794;2023-02-23T12:11:21;98601.59;;;15.57;100.00
53908;BME280;40469;47.998;7.794;2023-02-23T12:13:57;98600.41;;;15.15;100.00
53908;BME280;40469;47.998;7.794;2023-02-23T12:16:27;98599.19;;;14.99;100.00
53908;BME280;40469;47.998;7.794;2023-02-23T12:24:18;98591.94;;;15.07;100.00
53908;BME280;40469;47.998;7.794;2023-02-23T12:26:45;98592.69;;;15.11;100.00
53908;BME280;40469;47.998;7.794;2023-02-23T12:31:51;98584.13;;;15.04;100.00
53908;BME280;40469;47.998;7.794;2023-02-23T12:34:23;98579.88;;;14.73;100.00
53908;BME280;40469;47.998;7.794;2023-02-23T12:36:54;98589.28;;;14.81;100.00
53908;BME280;40469;47.998;7.794;2023-02-23T12:42:06;98585.59;;;15.13;100.00
53908;BME280;40469;47.998;7.794;2023-02-23T12:44:41;98576.34;;;15.01;100.00
53908;BME280;40469;47.998;7.794;2023-02-23T12:47:12;98581.56;;;15.03;100.00
53908;BME280;40469;47.998;7.794;2023-02-23T12:49:41;98580.59;;;14.78;100.00
53908;BME280;40469;47.998;7.794;2023-02-23T12:54:35;98582.53;;;15.25;100.00
53908;BME280;40469;47.998;7.794;2023-02-23T13:01:58;98573.19;;;15.42;100.00
53908;BME280;40469;47.998;7.794;2023-02-23T13:04:46;98573.91;;;15.22;100.00
53908;BME280;40469;47.998;7.794;2023-02-23T13:07:28;98573.72;;;15.26;100.00
53908;BME280;40469;47.998;7.794;2023-02-23T13:12:45;98563.00;;;15.56;100.00
53908;BME280;40469;47.998;7.794;2023-02-23T13:25:39;98554.41;;;15.27;100.00
53908;BME280;40469;47.998;7.794;2023-02-23T13:28:09;98551.66;;;15.79;100.00
53908;BME280;40469;47.998;7.794;2023-02-23T13:30:39;98555.50;;;15.94;100.00
53908;BME280;40469;47.998;7.794;2023-02-23T13:33:23;98551.75;;;15.52;100.00
53908;BME280;40469;47.998;7.794;2023-02-23T13:35:49;98555.00;;;15.59;100.00
53908;BME280;40469;47.998;7.794;2023-02-23T13:40:47;98548.69;;;15.88;100.00
53908;BME280;40469;47.998;7.794;2023-02-23T13:46:03;98542.03;;;16.02;100.00
53908;BME280;40469;47.998;7.794;2023-02-23T13:56:22;98545.78;;;15.24;100.00
53908;BME280;40469;47.998;7.794;2023-02-23T13:58:54;98544.94;;;15.47;100.00
53908;BME280;40469;47.998;7.794;2023-02-23T14:01:34;98543.13;;;15.24;100.00
53908;BME280;40469;47.998;7.794;2023-02-23T14:04:01;98543.66;;;15.08;100.00
53908;BME280;40469;47.998;7.794;2023-02-23T14:06:29;98546.03;;;15.41;100.00
53908;BME280;40469;47.998;7.794;2023-02-23T14:09:09;98547.66;;;15.69;100.00
53908;BME280;40469;47.998;7.794;2023-02-23T14:11:42;98542.34;;;15.94;100.00
53908;BME280;40469;47.998;7.794;2023-02-23T14:14:10;98540.38;;;15.76;100.00
53908;BME280;40469;47.998;7.794;2023-02-23T14:16:36;98536.88;;;15.99;100.00
53908;BME280;40469;47.998;7.794;2023-02-23T14:24:14;98536.78;;;16.24;100.00
53908;BME280;40469;47.998;7.794;2023-02-23T14:26:45;98535.34;;;15.93;100.00
53908;BME280;40469;47.998;7.794;2023-02-23T14:29:28;98535.00;;;16.24;100.00
53908;BME280;40469;47.998;7.794;2023-02-23T14:34:21;98537.28;;;16.11;100.00
53908;BME280;40469;47.998;7.794;2023-02-23T14:36:49;98537.28;;;15.88;100.00
53908;BME280;40469;47.998;7.794;2023-02-23T14:39:22;98538.06;;;16.36;100.00
53908;BME280;40469;47.998;7.794;2023-02-23T14:44:18;98527.38;;;15.95;100.00
53908;BME280;40469;47.998;7.794;2023-02-23T14:46:49;98531.72;;;15.72;100.00
53908;BME280;40469;47.998;7.794;2023-02-23T14:49:19;98523.22;;;15.65;100.00
53908;BME280;40469;47.998;7.794;2023-02-23T14:51:51;98529.59;;;15.58;100.00
53908;BME280;40469;47.998;7.794;2023-02-23T14:54:29;98534.81;;;15.60;100.00
53908;BME280;40469;47.998;7.794;2023-02-23T14:56:56;98531.38;;;16.05;100.00
53908;BME280;40469;47.998;7.794;2023-02-23T14:59:23;98530.16;;;16.14;100.00
53908;BME280;40469;47.998;7.794;2023-02-23T15:01:51;98532.53;;;15.74;100.00
53908;BME280;40469;47.998;7.794;2023-02-23T15:04:17;98537.28;;;15.64;100.00
53908;BME280;40469;47.998;7.794;2023-02-23T15:06:44;98533.75;;;16.11;100.00